sensor_id;sensor_type;location;lat;lon;timestamp;temperature;humidity
827;DHT22;395;48.132;11.608;2022-11-14T00:00:08;8.50;15.90
827;DHT22;395;48.132;11.608;2022-11-14T00:02:36;8.50;15.80
827;DHT22;395;48.132;11.608;2022-11-14T00:05:02;8.50;15.70
827;DHT22;395;48.132;11.608;2022-11-14T00:07:31;8.50;15.60
827;DHT22;395;48.132;11.608;2022-11-14T00:09:57;8.50;15.10
827;DHT22;395;48.132;11.608;2022-11-14T00:12:23;8.50;14.70
827;DHT22;395;48.132;11.608;2022-11-14T00:14:49;8.50;14.60
827;DHT22;395;48.132;11.608;2022-11-14T00:17:16;8.40;14.50
827;DHT22;395;48.132;11.608;2022-11-14T00:19:42;8.40;14.40
827;DHT22;395;48.132;11.608;2022-11-14T00:22:08;8.40;14.40
827;DHT22;395;48.132;11.608;2022-11-14T00:24:34;8.40;14.30
827;DHT22;395;48.132;11.608;2022-11-14T00:26:59;8.40;14.10
827;DHT22;395;48.132;11.608;2022-11-14T00:29:25;8.30;14.20
827;DHT22;395;48.132;11.608;2022-11-14T00:31:51;8.30;14.20
827;DHT22;395;48.132;11.608;2022-11-14T00:34:17;8.30;14.20
827;DHT22;395;48.132;11.608;2022-11-14T00:36:42;8.20;14.20
827;DHT22;395;48.132;11.608;2022-11-14T00:39:11;8.20;14.60
827;DHT22;395;48.132;11.608;2022-11-14T00:41:39;8.20;14.70
827;DHT22;395;48.132;11.608;2022-11-14T00:44:04;8.20;14.70
827;DHT22;395;48.132;11.608;2022-11-14T00:46:30;8.20;14.80
827;DHT22;395;48.132;11.608;2022-11-14T00:48:56;8.20;14.60
827;DHT22;395;48.132;11.608;2022-11-14T00:51:21;8.20;14.60
827;DHT22;395;48.132;11.608;2022-11-14T00:53:47;8.20;14.70
827;DHT22;395;48.132;11.608;2022-11-14T00:56:13;8.20;14.70
827;DHT22;395;48.132;11.608;2022-11-14T00:58:38;8.20;14.90
827;DHT22;395;48.132;11.608;2022-11-14T01:01:04;8.20;15.20
827;DHT22;395;48.132;11.608;2022-11-14T01:03:30;8.20;15.10
827;DHT22;395;48.132;11.608;2022-11-14T01:05:55;8.20;14.70
827;DHT22;395;48.132;11.608;2022-11-14T01:08:21;8.20;14.50
827;DHT22;395;48.132;11.608;2022-11-14T01:10:49;8.20;14.20
827;DHT22;395;48.132;11.608;2022-11-14T01:13:16;8.20;14.20
827;DHT22;395;48.132;11.608;2022-11-14T01:15:45;8.20;13.90
827;DHT22;395;48.132;11.608;2022-11-14T01:18:14;8.20;13.60
827;DHT22;395;48.132;11.608;2022-11-14T01:20:42;8.20;13.30
827;DHT22;395;48.132;11.608;2022-11-14T01:23:09;8.10;13.10
827;DHT22;395;48.132;11.608;2022-11-14T01:25:39;8.10;13.30
827;DHT22;395;48.132;11.608;2022-11-14T01:28:13;8.10;13.30
827;DHT22;395;48.132;11.608;2022-11-14T01:30:39;8.10;13.20
827;DHT22;395;48.132;11.608;2022-11-14T01:33:05;8.10;12.90
827;DHT22;395;48.132;11.608;2022-11-14T01:35:32;8.10;12.80
827;DHT22;395;48.132;11.608;2022-11-14T01:37:58;8.10;12.70
827;DHT22;395;48.132;11.608;2022-11-14T01:40:24;8.10;12.60
827;DHT22;395;48.132;11.608;2022-11-14T01:48:46;8.00;12.10
827;DHT22;395;48.132;11.608;2022-11-14T01:51:22;8.00;12.10
827;DHT22;395;48.132;11.608;2022-11-14T01:53:51;8.00;12.00
827;DHT22;395;48.132;11.608;2022-11-14T01:56:39;8.00;11.60
827;DHT22;395;48.132;11.608;2022-11-14T01:59:12;7.90;11.70
827;DHT22;395;48.132;11.608;2022-11-14T02:01:48;7.90;11.90
827;DHT22;395;48.132;11.608;2022-11-14T02:04:29;7.90;12.40
827;DHT22;395;48.132;11.608;2022-11-14T02:06:59;7.90;12.40
827;DHT22;395;48.132;11.608;2022-11-14T02:09:28;7.80;12.80
827;DHT22;395;48.132;11.608;2022-11-14T02:11:57;7.90;13.40
827;DHT22;395;48.132;11.608;2022-11-14T02:14:23;7.90;13.90
827;DHT22;395;48.132;11.608;2022-11-14T02:16:49;7.90;14.00
827;DHT22;395;48.132;11.608;2022-11-14T02:19:15;7.90;14.00
827;DHT22;395;48.132;11.608;2022-11-14T02:21:41;8.00;14.00
827;DHT22;395;48.132;11.608;2022-11-14T02:24:10;7.90;14.00
827;DHT22;395;48.132;11.608;2022-11-14T02:26:37;7.90;14.20
827;DHT22;395;48.132;11.608;2022-11-14T02:29:07;7.90;14.40
827;DHT22;395;48.132;11.608;2022-11-14T02:31:33;7.90;14.60
827;DHT22;395;48.132;11.608;2022-11-14T02:33:59;8.00;14.50
827;DHT22;395;48.132;11.608;2022-11-14T02:36:25;8.00;14.10
827;DHT22;395;48.132;11.608;2022-11-14T02:38:51;8.00;14.00
827;DHT22;395;48.132;11.608;2022-11-14T02:41:16;8.00;14.00
827;DHT22;395;48.132;11.608;2022-11-14T02:43:42;8.00;13.90
827;DHT22;395;48.132;11.608;2022-11-14T02:46:08;8.00;13.80
827;DHT22;395;48.132;11.608;2022-11-14T02:48:34;8.00;13.80
827;DHT22;395;48.132;11.608;2022-11-14T02:51:00;8.20;13.60
827;DHT22;395;48.132;11.608;2022-11-14T02:53:25;8.00;13.20
827;DHT22;395;48.132;11.608;2022-11-14T02:55:51;8.00;12.90
827;DHT22;395;48.132;11.608;2022-11-14T02:58:17;8.00;12.90
827;DHT22;395;48.132;11.608;2022-11-14T03:00:42;8.00;13.00
827;DHT22;395;48.132;11.608;2022-11-14T03:03:08;8.00;12.50
827;DHT22;395;48.132;11.608;2022-11-14T03:05:34;8.00;12.30
827;DHT22;395;48.132;11.608;2022-11-14T03:07:59;8.00;12.20
827;DHT22;395;48.132;11.608;2022-11-14T03:10:25;8.00;11.90
827;DHT22;395;48.132;11.608;2022-11-14T03:12:55;8.00;11.70
827;DHT22;395;48.132;11.608;2022-11-14T03:15:21;7.90;11.30
827;DHT22;395;48.132;11.608;2022-11-14T03:17:47;8.00;11.30
827;DHT22;395;48.132;11.608;2022-11-14T03:20:13;8.00;11.30
827;DHT22;395;48.132;11.608;2022-11-14T03:22:39;7.90;11.30
827;DHT22;395;48.132;11.608;2022-11-14T03:25:05;7.90;11.30
827;DHT22;395;48.132;11.608;2022-11-14T03:27:30;7.90;11.20
827;DHT22;395;48.132;11.608;2022-11-14T03:29:56;7.90;11.20
827;DHT22;395;48.132;11.608;2022-11-14T03:32:22;7.90;11.20
827;DHT22;395;48.132;11.608;2022-11-14T03:34:47;7.90;10.70
827;DHT22;395;48.132;11.608;2022-11-14T03:37:13;7.90;10.40
827;DHT22;395;48.132;11.608;2022-11-14T03:39:39;7.90;10.40
827;DHT22;395;48.132;11.608;2022-11-14T03:42:04;7.80;10.30
827;DHT22;395;48.132;11.608;2022-11-14T03:44:30;7.80;10.30
827;DHT22;395;48.132;11.608;2022-11-14T03:46:56;7.80;10.60
827;DHT22;395;48.132;11.608;2022-11-14T03:49:21;7.80;10.70
827;DHT22;395;48.132;11.608;2022-11-14T03:51:47;7.80;10.70
827;DHT22;395;48.132;11.608;2022-11-14T03:54:13;7.80;10.80
827;DHT22;395;48.132;11.608;2022-11-14T03:56:38;7.80;11.00
827;DHT22;395;48.132;11.608;2022-11-14T03:59:04;7.80;11.10
827;DHT22;395;48.132;11.608;2022-11-14T04:01:29;7.80;11.20
827;DHT22;395;48.132;11.608;2022-11-14T04:03:55;7.80;11.40
827;DHT22;395;48.132;11.608;2022-11-14T04:06:21;7.80;11.60
827;DHT22;395;48.132;11.608;2022-11-14T04:08:46;7.80;11.70
827;DHT22;395;48.132;11.608;2022-11-14T04:11:12;7.80;11.90
827;DHT22;395;48.132;11.608;2022-11-14T04:13:38;7.80;11.80
827;DHT22;395;48.132;11.608;2022-11-14T04:16:04;7.80;11.80
827;DHT22;395;48.132;11.608;2022-11-14T04:18:29;7.80;11.90
827;DHT22;395;48.132;11.608;2022-11-14T04:20:55;7.80;12.00
827;DHT22;395;48.132;11.608;2022-11-14T04:23:21;7.80;11.90
827;DHT22;395;48.132;11.608;2022-11-14T04:25:47;7.80;12.00
827;DHT22;395;48.132;11.608;2022-11-14T04:28:13;7.80;12.10
827;DHT22;395;48.132;11.608;2022-11-14T04:30:39;7.80;12.00
827;DHT22;395;48.132;11.608;2022-11-14T04:33:04;7.80;11.90
827;DHT22;395;48.132;11.608;2022-11-14T04:35:30;7.90;12.00
827;DHT22;395;48.132;11.608;2022-11-14T04:37:56;7.90;12.00
827;DHT22;395;48.132;11.608;2022-11-14T04:40:22;7.90;11.90
827;DHT22;395;48.132;11.608;2022-11-14T04:42:47;7.90;11.60
827;DHT22;395;48.132;11.608;2022-11-14T04:45:13;7.90;11.30
827;DHT22;395;48.132;11.608;2022-11-14T04:47:43;7.90;11.50
827;DHT22;395;48.132;11.608;2022-11-14T04:50:09;7.90;11.40
827;DHT22;395;48.132;11.608;2022-11-14T04:52:35;7.80;11.30
827;DHT22;395;48.132;11.608;2022-11-14T04:55:00;7.80;11.40
827;DHT22;395;48.132;11.608;2022-11-14T04:57:26;7.80;11.40
827;DHT22;395;48.132;11.608;2022-11-14T04:59:52;7.80;11.70
827;DHT22;395;48.132;11.608;2022-11-14T05:02:18;7.80;11.60
827;DHT22;395;48.132;11.608;2022-11-14T05:04:43;7.80;11.90
827;DHT22;395;48.132;11.608;2022-11-14T05:07:12;7.90;11.90
827;DHT22;395;48.132;11.608;2022-11-14T05:09:37;7.90;12.00
827;DHT22;395;48.132;11.608;2022-11-14T05:12:03;7.90;12.00
827;DHT22;395;48.132;11.608;2022-11-14T05:14:29;7.80;12.00
827;DHT22;395;48.132;11.608;2022-11-14T05:16:56;7.80;12.00
827;DHT22;395;48.132;11.608;2022-11-14T05:19:22;7.80;12.30
827;DHT22;395;48.132;11.608;2022-11-14T05:21:48;7.80;12.50
827;DHT22;395;48.132;11.608;2022-11-14T05:24:13;7.80;12.10
827;DHT22;395;48.132;11.608;2022-11-14T05:26:39;7.80;12.00
827;DHT22;395;48.132;11.608;2022-11-14T05:29:05;7.80;12.10
827;DHT22;395;48.132;11.608;2022-11-14T05:31:31;7.80;12.00
827;DHT22;395;48.132;11.608;2022-11-14T05:33:57;7.80;12.00
827;DHT22;395;48.132;11.608;2022-11-14T05:36:23;7.80;12.10
827;DHT22;395;48.132;11.608;2022-11-14T05:38:48;7.70;12.10
827;DHT22;395;48.132;11.608;2022-11-14T05:41:16;7.70;11.90
827;DHT22;395;48.132;11.608;2022-11-14T05:43:42;7.70;11.90
827;DHT22;395;48.132;11.608;2022-11-14T05:46:11;7.70;11.90
827;DHT22;395;48.132;11.608;2022-11-14T05:48:37;7.70;12.00
827;DHT22;395;48.132;11.608;2022-11-14T05:51:04;7.60;12.10
827;DHT22;395;48.132;11.608;2022-11-14T05:53:31;7.70;12.40
827;DHT22;395;48.132;11.608;2022-11-14T05:56:06;7.70;12.30
827;DHT22;395;48.132;11.608;2022-11-14T05:58:33;7.70;12.00
827;DHT22;395;48.132;11.608;2022-11-14T06:01:15;7.60;11.90
827;DHT22;395;48.132;11.608;2022-11-14T06:03:44;7.60;12.00
827;DHT22;395;48.132;11.608;2022-11-14T06:06:12;7.60;12.40
827;DHT22;395;48.132;11.608;2022-11-14T06:08:38;7.60;11.80
827;DHT22;395;48.132;11.608;2022-11-14T06:11:06;7.60;11.70
827;DHT22;395;48.132;11.608;2022-11-14T06:13:33;7.60;11.70
827;DHT22;395;48.132;11.608;2022-11-14T06:16:04;7.60;11.40
827;DHT22;395;48.132;11.608;2022-11-14T06:18:31;7.60;11.30
827;DHT22;395;48.132;11.608;2022-11-14T06:23:36;7.60;10.70
827;DHT22;395;48.132;11.608;2022-11-14T06:26:04;7.50;10.10
827;DHT22;395;48.132;11.608;2022-11-14T06:28:30;7.50;10.10
827;DHT22;395;48.132;11.608;2022-11-14T06:31:02;7.50;10.10
827;DHT22;395;48.132;11.608;2022-11-14T06:33:29;7.50;10.10
827;DHT22;395;48.132;11.608;2022-11-14T06:35:58;7.40;10.00
827;DHT22;395;48.132;11.608;2022-11-14T06:38:24;7.40;9.90
827;DHT22;395;48.132;11.608;2022-11-14T06:40:50;7.40;9.60
827;DHT22;395;48.132;11.608;2022-11-14T06:43:15;7.40;9.40
827;DHT22;395;48.132;11.608;2022-11-14T06:45:41;7.30;9.20
827;DHT22;395;48.132;11.608;2022-11-14T06:48:07;7.30;9.30
827;DHT22;395;48.132;11.608;2022-11-14T06:50:33;7.30;9.20
827;DHT22;395;48.132;11.608;2022-11-14T06:52:58;7.30;9.20
827;DHT22;395;48.132;11.608;2022-11-14T06:55:24;7.30;9.40
827;DHT22;395;48.132;11.608;2022-11-14T06:57:54;7.30;9.80
827;DHT22;395;48.132;11.608;2022-11-14T07:00:21;7.40;10.30
827;DHT22;395;48.132;11.608;2022-11-14T07:02:47;7.40;10.00
827;DHT22;395;48.132;11.608;2022-11-14T07:05:14;7.40;10.00
827;DHT22;395;48.132;11.608;2022-11-14T07:07:39;7.40;9.60
827;DHT22;395;48.132;11.608;2022-11-14T07:10:05;7.40;9.40
827;DHT22;395;48.132;11.608;2022-11-14T07:12:31;7.40;9.20
827;DHT22;395;48.132;11.608;2022-11-14T07:14:57;7.40;9.30
827;DHT22;395;48.132;11.608;2022-11-14T07:17:23;7.50;9.10
827;DHT22;395;48.132;11.608;2022-11-14T07:19:49;7.40;8.90
827;DHT22;395;48.132;11.608;2022-11-14T07:22:14;7.50;8.80
827;DHT22;395;48.132;11.608;2022-11-14T07:24:40;7.60;8.80
827;DHT22;395;48.132;11.608;2022-11-14T07:27:06;7.50;8.80
827;DHT22;395;48.132;11.608;2022-11-14T07:29:35;7.50;8.80
827;DHT22;395;48.132;11.608;2022-11-14T07:32:01;7.50;8.90
827;DHT22;395;48.132;11.608;2022-11-14T07:34:26;7.50;8.90
827;DHT22;395;48.132;11.608;2022-11-14T07:36:52;7.50;9.50
827;DHT22;395;48.132;11.608;2022-11-14T07:39:19;7.50;9.00
827;DHT22;395;48.132;11.608;2022-11-14T07:41:45;7.50;9.10
827;DHT22;395;48.132;11.608;2022-11-14T07:44:11;7.50;9.00
827;DHT22;395;48.132;11.608;2022-11-14T07:46:36;7.50;9.00
827;DHT22;395;48.132;11.608;2022-11-14T07:49:02;7.50;9.10
827;DHT22;395;48.132;11.608;2022-11-14T07:51:28;7.50;9.20
827;DHT22;395;48.132;11.608;2022-11-14T07:53:54;7.50;9.10
827;DHT22;395;48.132;11.608;2022-11-14T07:56:19;7.50;9.10
827;DHT22;395;48.132;11.608;2022-11-14T07:58:47;7.60;9.10
827;DHT22;395;48.132;11.608;2022-11-14T08:01:13;7.50;9.00
827;DHT22;395;48.132;11.608;2022-11-14T08:03:39;7.60;9.10
827;DHT22;395;48.132;11.608;2022-11-14T08:06:10;7.60;8.90
827;DHT22;395;48.132;11.608;2022-11-14T08:08:36;7.60;9.00
827;DHT22;395;48.132;11.608;2022-11-14T08:11:03;7.50;9.00
827;DHT22;395;48.132;11.608;2022-11-14T08:13:29;7.60;9.50
827;DHT22;395;48.132;11.608;2022-11-14T08:15:55;7.60;9.60
827;DHT22;395;48.132;11.608;2022-11-14T08:18:22;7.70;9.80
827;DHT22;395;48.132;11.608;2022-11-14T08:20:48;8.10;10.20
827;DHT22;395;48.132;11.608;2022-11-14T08:23:14;7.70;9.90
827;DHT22;395;48.132;11.608;2022-11-14T08:25:40;7.70;9.60
827;DHT22;395;48.132;11.608;2022-11-14T08:28:06;7.80;9.40
827;DHT22;395;48.132;11.608;2022-11-14T08:30:31;7.80;9.10
827;DHT22;395;48.132;11.608;2022-11-14T08:33:00;7.80;9.00
827;DHT22;395;48.132;11.608;2022-11-14T08:35:27;7.90;9.00
827;DHT22;395;48.132;11.608;2022-11-14T08:37:52;7.80;8.90
827;DHT22;395;48.132;11.608;2022-11-14T08:40:18;7.80;8.90
827;DHT22;395;48.132;11.608;2022-11-14T08:42:44;7.80;9.10
827;DHT22;395;48.132;11.608;2022-11-14T08:45:09;7.90;9.20
827;DHT22;395;48.132;11.608;2022-11-14T08:47:35;7.90;9.30
827;DHT22;395;48.132;11.608;2022-11-14T08:50:01;7.90;9.40
827;DHT22;395;48.132;11.608;2022-11-14T08:52:26;8.00;10.10
827;DHT22;395;48.132;11.608;2022-11-14T08:54:52;8.00;9.70
827;DHT22;395;48.132;11.608;2022-11-14T08:57:18;8.00;9.60
827;DHT22;395;48.132;11.608;2022-11-14T08:59:43;8.00;9.50
827;DHT22;395;48.132;11.608;2022-11-14T09:02:10;8.10;9.60
827;DHT22;395;48.132;11.608;2022-11-14T09:04:36;8.10;9.50
827;DHT22;395;48.132;11.608;2022-11-14T09:07:02;8.10;9.40
827;DHT22;395;48.132;11.608;2022-11-14T09:09:28;8.10;9.30
827;DHT22;395;48.132;11.608;2022-11-14T09:11:53;8.10;9.00
827;DHT22;395;48.132;11.608;2022-11-14T09:14:19;8.10;8.70
827;DHT22;395;48.132;11.608;2022-11-14T09:16:46;8.20;8.70
827;DHT22;395;48.132;11.608;2022-11-14T09:19:12;8.20;8.70
827;DHT22;395;48.132;11.608;2022-11-14T09:21:38;8.30;8.80
827;DHT22;395;48.132;11.608;2022-11-14T09:24:03;8.30;8.80
827;DHT22;395;48.132;11.608;2022-11-14T09:26:29;8.30;8.60
827;DHT22;395;48.132;11.608;2022-11-14T09:28:55;8.30;8.20
827;DHT22;395;48.132;11.608;2022-11-14T09:31:21;8.40;8.30
827;DHT22;395;48.132;11.608;2022-11-14T09:33:47;8.40;8.20
827;DHT22;395;48.132;11.608;2022-11-14T09:36:12;8.40;8.20
827;DHT22;395;48.132;11.608;2022-11-14T09:38:41;8.50;8.40
827;DHT22;395;48.132;11.608;2022-11-14T09:44:28;8.50;8.50
827;DHT22;395;48.132;11.608;2022-11-14T09:46:52;8.60;8.30
827;DHT22;395;48.132;11.608;2022-11-14T09:49:22;8.60;8.00
827;DHT22;395;48.132;11.608;2022-11-14T09:51:55;8.60;8.10
827;DHT22;395;48.132;11.608;2022-11-14T09:54:23;8.70;8.00
827;DHT22;395;48.132;11.608;2022-11-14T09:56:49;8.80;8.20
827;DHT22;395;48.132;11.608;2022-11-14T09:59:16;8.80;7.90
827;DHT22;395;48.132;11.608;2022-11-14T10:01:51;8.80;7.90
827;DHT22;395;48.132;11.608;2022-11-14T10:07:30;9.00;8.50
827;DHT22;395;48.132;11.608;2022-11-14T10:12:58;9.10;8.30
827;DHT22;395;48.132;11.608;2022-11-14T10:21:15;9.30;7.90
827;DHT22;395;48.132;11.608;2022-11-14T10:24:08;9.30;7.50
827;DHT22;395;48.132;11.608;2022-11-14T10:26:39;9.40;7.30
827;DHT22;395;48.132;11.608;2022-11-14T10:32:03;9.50;6.90
827;DHT22;395;48.132;11.608;2022-11-14T10:34:34;9.50;6.50
827;DHT22;395;48.132;11.608;2022-11-14T10:37:10;9.60;6.40
827;DHT22;395;48.132;11.608;2022-11-14T10:40:21;9.60;6.30
827;DHT22;395;48.132;11.608;2022-11-14T10:42:48;9.70;6.00
827;DHT22;395;48.132;11.608;2022-11-14T10:45:34;9.70;5.40
827;DHT22;395;48.132;11.608;2022-11-14T10:48:32;9.80;5.00
827;DHT22;395;48.132;11.608;2022-11-14T10:51:25;9.80;4.50
827;DHT22;395;48.132;11.608;2022-11-14T10:54:09;9.90;4.20
827;DHT22;395;48.132;11.608;2022-11-14T10:56:47;10.00;3.50
827;DHT22;395;48.132;11.608;2022-11-14T10:59:13;10.00;4.10
827;DHT22;395;48.132;11.608;2022-11-14T11:04:18;10.10;3.50
827;DHT22;395;48.132;11.608;2022-11-14T11:06:49;10.20;3.60
827;DHT22;395;48.132;11.608;2022-11-14T11:09:21;10.20;3.60
827;DHT22;395;48.132;11.608;2022-11-14T11:12:53;10.30;3.30
827;DHT22;395;48.132;11.608;2022-11-14T11:15:37;10.10;5.30
827;DHT22;395;48.132;11.608;2022-11-14T11:18:21;9.90;5.90
827;DHT22;395;48.132;11.608;2022-11-14T11:21:02;10.00;5.70
827;DHT22;395;48.132;11.608;2022-11-14T11:23:28;9.90;6.40
827;DHT22;395;48.132;11.608;2022-11-14T11:26:18;9.90;6.60
827;DHT22;395;48.132;11.608;2022-11-14T11:31:50;9.90;7.40
827;DHT22;395;48.132;11.608;2022-11-14T11:34:23;10.00;7.00
827;DHT22;395;48.132;11.608;2022-11-14T11:39:48;10.30;5.80
827;DHT22;395;48.132;11.608;2022-11-14T11:42:19;10.30;5.90
827;DHT22;395;48.132;11.608;2022-11-14T11:44:48;10.40;5.60
827;DHT22;395;48.132;11.608;2022-11-14T11:47:17;10.30;6.20
827;DHT22;395;48.132;11.608;2022-11-14T11:49:50;10.20;7.10
827;DHT22;395;48.132;11.608;2022-11-14T11:54:52;10.20;7.80
827;DHT22;395;48.132;11.608;2022-11-14T11:57:41;10.10;8.10
827;DHT22;395;48.132;11.608;2022-11-14T12:00:19;10.00;8.80
827;DHT22;395;48.132;11.608;2022-11-14T12:02:47;9.90;11.10
827;DHT22;395;48.132;11.608;2022-11-14T12:08:16;9.90;10.80
827;DHT22;395;48.132;11.608;2022-11-14T12:10:45;10.00;9.70
827;DHT22;395;48.132;11.608;2022-11-14T12:18:56;9.90;7.90
827;DHT22;395;48.132;11.608;2022-11-14T12:30:27;10.40;3.80
827;DHT22;395;48.132;11.608;2022-11-14T12:33:02;10.50;3.80
827;DHT22;395;48.132;11.608;2022-11-14T12:35:34;10.40;3.50
827;DHT22;395;48.132;11.608;2022-11-14T12:38:03;10.40;1.90
827;DHT22;395;48.132;11.608;2022-11-14T12:43:00;10.50;1.30
827;DHT22;395;48.132;11.608;2022-11-14T12:50:51;10.60;1.40
827;DHT22;395;48.132;11.608;2022-11-14T12:56:21;10.80;1.00
827;DHT22;395;48.132;11.608;2022-11-14T13:12:40;11.00;1.00
827;DHT22;395;48.132;11.608;2022-11-14T13:15:28;10.90;1.00
827;DHT22;395;48.132;11.608;2022-11-14T13:18:26;10.90;1.00
827;DHT22;395;48.132;11.608;2022-11-14T13:24:03;11.00;1.20
827;DHT22;395;48.132;11.608;2022-11-14T13:28:55;11.20;1.00
827;DHT22;395;48.132;11.608;2022-11-14T13:31:43;11.30;1.00
827;DHT22;395;48.132;11.608;2022-11-14T13:39:56;11.30;1.00
827;DHT22;395;48.132;11.608;2022-11-14T13:45:44;11.40;1.00
827;DHT22;395;48.132;11.608;2022-11-14T13:51:04;11.50;1.00
827;DHT22;395;48.132;11.608;2022-11-14T13:53:31;11.40;1.10
827;DHT22;395;48.132;11.608;2022-11-14T14:09:21;11.60;1.00
827;DHT22;395;48.132;11.608;2022-11-14T14:17:31;11.60;1.60
827;DHT22;395;48.132;11.608;2022-11-14T14:23:00;11.70;1.80
827;DHT22;395;48.132;11.608;2022-11-14T14:25:40;11.80;1.70
827;DHT22;395;48.132;11.608;2022-11-14T14:28:16;11.80;1.70
827;DHT22;395;48.132;11.608;2022-11-14T14:31:24;11.80;1.40
827;DHT22;395;48.132;11.608;2022-11-14T14:33:51;11.80;1.50
827;DHT22;395;48.132;11.608;2022-11-14T14:36:24;11.80;1.50
827;DHT22;395;48.132;11.608;2022-11-14T14:39:18;11.80;2.30
827;DHT22;395;48.132;11.608;2022-11-14T14:41:45;11.80;2.30
827;DHT22;395;48.132;11.608;2022-11-14T14:44:29;11.80;1.90
827;DHT22;395;48.132;11.608;2022-11-14T14:46:57;11.80;2.20
827;DHT22;395;48.132;11.608;2022-11-14T14:49:29;11.70;2.30
827;DHT22;395;48.132;11.608;2022-11-14T14:51:56;11.80;2.70
827;DHT22;395;48.132;11.608;2022-11-14T14:54:24;11.70;2.70
827;DHT22;395;48.132;11.608;2022-11-14T14:56:58;11.70;2.80
827;DHT22;395;48.132;11.608;2022-11-14T14:59:26;11.70;2.90
827;DHT22;395;48.132;11.608;2022-11-14T15:01:53;11.60;3.10
827;DHT22;395;48.132;11.608;2022-11-14T15:04:22;11.60;3.20
827;DHT22;395;48.132;11.608;2022-11-14T15:06:49;11.60;3.40
827;DHT22;395;48.132;11.608;2022-11-14T15:09:21;11.60;3.40
827;DHT22;395;48.132;11.608;2022-11-14T15:11:50;11.60;3.40
827;DHT22;395;48.132;11.608;2022-11-14T15:14:24;11.50;3.50
827;DHT22;395;48.132;11.608;2022-11-14T15:16:53;11.50;3.50
827;DHT22;395;48.132;11.608;2022-11-14T15:19:26;11.50;3.80
827;DHT22;395;48.132;11.608;2022-11-14T15:22:04;11.40;3.80
827;DHT22;395;48.132;11.608;2022-11-14T15:24:30;11.40;4.00
827;DHT22;395;48.132;11.608;2022-11-14T15:26:56;11.30;4.40
827;DHT22;395;48.132;11.608;2022-11-14T15:29:24;11.30;4.30
827;DHT22;395;48.132;11.608;2022-11-14T15:31:59;11.30;4.20
827;DHT22;395;48.132;11.608;2022-11-14T15:34:28;11.30;4.20
827;DHT22;395;48.132;11.608;2022-11-14T15:39:38;11.20;4.30
827;DHT22;395;48.132;11.608;2022-11-14T15:44:54;11.10;4.30
827;DHT22;395;48.132;11.608;2022-11-14T15:47:26;11.10;4.20
827;DHT22;395;48.132;11.608;2022-11-14T15:52:39;11.00;4.00
827;DHT22;395;48.132;11.608;2022-11-14T15:55:17;11.00;4.20
827;DHT22;395;48.132;11.608;2022-11-14T15:57:43;11.00;4.20
827;DHT22;395;48.132;11.608;2022-11-14T16:00:13;11.00;4.60
827;DHT22;395;48.132;11.608;2022-11-14T16:02:43;10.90;4.70
827;DHT22;395;48.132;11.608;2022-11-14T16:05:13;10.90;4.70
827;DHT22;395;48.132;11.608;2022-11-14T16:07:39;10.90;4.70
827;DHT22;395;48.132;11.608;2022-11-14T16:10:30;10.90;4.60
827;DHT22;395;48.132;11.608;2022-11-14T16:12:56;10.80;4.60
827;DHT22;395;48.132;11.608;2022-11-14T16:15:22;10.80;4.60
827;DHT22;395;48.132;11.608;2022-11-14T16:17:49;10.80;4.70
827;DHT22;395;48.132;11.608;2022-11-14T16:20:20;10.80;4.90
827;DHT22;395;48.132;11.608;2022-11-14T16:22:47;10.70;4.90
827;DHT22;395;48.132;11.608;2022-11-14T16:25:39;10.70;5.10
827;DHT22;395;48.132;11.608;2022-11-14T16:28:05;10.70;5.20
827;DHT22;395;48.132;11.608;2022-11-14T16:30:31;10.70;5.40
827;DHT22;395;48.132;11.608;2022-11-14T16:32:56;10.70;5.30
827;DHT22;395;48.132;11.608;2022-11-14T16:35:24;10.70;5.50
827;DHT22;395;48.132;11.608;2022-11-14T16:37:54;10.60;5.50
827;DHT22;395;48.132;11.608;2022-11-14T16:40:22;10.60;5.60
827;DHT22;395;48.132;11.608;2022-11-14T16:42:48;10.60;5.70
827;DHT22;395;48.132;11.608;2022-11-14T16:45:15;10.60;5.70
827;DHT22;395;48.132;11.608;2022-11-14T16:47:42;10.60;5.80
827;DHT22;395;48.132;11.608;2022-11-14T16:50:08;10.50;5.80
827;DHT22;395;48.132;11.608;2022-11-14T16:52:35;10.60;5.90
827;DHT22;395;48.132;11.608;2022-11-14T16:55:01;10.50;5.70
827;DHT22;395;48.132;11.608;2022-11-14T16:57:27;10.50;5.70
827;DHT22;395;48.132;11.608;2022-11-14T16:59:52;10.50;5.60
827;DHT22;395;48.132;11.608;2022-11-14T17:02:18;10.50;5.50
827;DHT22;395;48.132;11.608;2022-11-14T17:04:44;10.50;5.50
827;DHT22;395;48.132;11.608;2022-11-14T17:07:11;10.50;5.40
827;DHT22;395;48.132;11.608;2022-11-14T17:09:37;10.50;5.40
827;DHT22;395;48.132;11.608;2022-11-14T17:12:03;10.50;5.30
827;DHT22;395;48.132;11.608;2022-11-14T17:14:29;10.50;5.20
827;DHT22;395;48.132;11.608;2022-11-14T17:16:55;10.50;5.20
827;DHT22;395;48.132;11.608;2022-11-14T17:19:21;10.50;5.10
827;DHT22;395;48.132;11.608;2022-11-14T17:21:46;10.50;5.10
827;DHT22;395;48.132;11.608;2022-11-14T17:24:12;10.50;5.10
827;DHT22;395;48.132;11.608;2022-11-14T17:26:38;10.60;5.10
827;DHT22;395;48.132;11.608;2022-11-14T17:29:05;10.50;5.10
827;DHT22;395;48.132;11.608;2022-11-14T17:31:31;10.50;5.10
827;DHT22;395;48.132;11.608;2022-11-14T17:33:57;10.50;5.10
827;DHT22;395;48.132;11.608;2022-11-14T17:36:25;10.50;5.10
827;DHT22;395;48.132;11.608;2022-11-14T17:38:51;10.50;5.10
827;DHT22;395;48.132;11.608;2022-11-14T17:41:17;10.40;5.30
827;DHT22;395;48.132;11.608;2022-11-14T17:43:43;10.40;5.50
827;DHT22;395;48.132;11.608;2022-11-14T17:46:10;10.40;5.40
827;DHT22;395;48.132;11.608;2022-11-14T17:48:36;10.40;5.40
827;DHT22;395;48.132;11.608;2022-11-14T17:51:06;10.40;5.30
827;DHT22;395;48.132;11.608;2022-11-14T17:53:35;10.40;5.20
827;DHT22;395;48.132;11.608;2022-11-14T17:56:01;10.30;5.20
827;DHT22;395;48.132;11.608;2022-11-14T17:58:29;10.30;5.30
827;DHT22;395;48.132;11.608;2022-11-14T18:00:56;10.30;5.40
827;DHT22;395;48.132;11.608;2022-11-14T18:03:24;10.30;5.20
827;DHT22;395;48.132;11.608;2022-11-14T18:05:50;10.30;5.30
827;DHT22;395;48.132;11.608;2022-11-14T18:08:15;10.30;5.40
827;DHT22;395;48.132;11.608;2022-11-14T18:10:41;10.30;5.40
827;DHT22;395;48.132;11.608;2022-11-14T18:13:07;10.30;5.60
827;DHT22;395;48.132;11.608;2022-11-14T18:15:33;10.20;5.60
827;DHT22;395;48.132;11.608;2022-11-14T18:17:59;10.20;5.60
827;DHT22;395;48.132;11.608;2022-11-14T18:20:25;10.20;5.60
827;DHT22;395;48.132;11.608;2022-11-14T18:22:51;10.20;5.60
827;DHT22;395;48.132;11.608;2022-11-14T18:25:17;10.20;5.80
827;DHT22;395;48.132;11.608;2022-11-14T18:27:43;10.20;5.70
827;DHT22;395;48.132;11.608;2022-11-14T18:30:09;10.20;5.80
827;DHT22;395;48.132;11.608;2022-11-14T18:32:35;10.10;5.70
827;DHT22;395;48.132;11.608;2022-11-14T18:35:01;10.10;5.80
827;DHT22;395;48.132;11.608;2022-11-14T18:37:26;10.10;5.70
827;DHT22;395;48.132;11.608;2022-11-14T18:39:53;10.10;5.80
827;DHT22;395;48.132;11.608;2022-11-14T18:42:18;10.10;6.00
827;DHT22;395;48.132;11.608;2022-11-14T18:44:44;10.10;6.00
827;DHT22;395;48.132;11.608;2022-11-14T18:47:10;10.10;6.00
827;DHT22;395;48.132;11.608;2022-11-14T18:49:36;10.10;6.10
827;DHT22;395;48.132;11.608;2022-11-14T18:52:02;10.00;6.10
827;DHT22;395;48.132;11.608;2022-11-14T18:54:27;10.00;6.20